Latest Weather Observations for Ouse

IDT60801

Issued at 8:32 am EDT Tuesday 17 January 2017 (issued every 30 minutes, with the page automatically refreshed every 10 minutes)

About weather observations | Map of weather stations | Latest weather observations for TAS | Other Formats
Station Details ID: 095048 Name: OUSE FIRE STATION Lat: -42.48 Lon: 146.71 Height: 90.0 m
Data from the previous 72 hours. | See also: Recent months at Ouse
Date/Time
EDT
Temp
°C
App
Temp
°C
Dew
Point
°C
Rel
Hum
%
Delta-T
°C
Wind Press
QNH
hPa
Press
MSL
hPa
Rain since
9am
mm
Dir  Spd
km/h
Gust
km/h
Spd
kts
Gust
kts
17/08:30am 14.6 13.4 10.4 76 2.2 NNE 7 9 4 5 1006.0 1005.8 0.0
17/08:00am 13.4 12.6 9.6 78 2.0 N 4 9 2 5 1006.3 1006.1 0.0
17/07:30am 10.5 8.8 8.3 86 1.1 NNW 7 15 4 8 1006.1 1005.9 0.0
17/07:00am 8.5 6.5 7.3 92 0.6 N 7 11 4 6 1006.0 1005.8 0.0
17/06:30am 6.9 4.8 6.5 97 0.2 NNW 7 11 4 6 1005.3 1005.1 0.0
17/06:00am 6.5 4.2 5.9 96 0.3 NNE 7 7 4 4 1005.1 1004.9 0.0
17/05:30am 7.1 6.3 6.4 95 0.3 CALM 0 0 0 0 1004.4 1004.2 0.0
17/05:00am 7.5 5.6 6.6 94 0.4 NW 6 6 3 3 1004.2 1004.0 0.0
17/04:30am 7.8 7.0 6.4 91 0.6 CALM 0 0 0 0 1003.9 1003.7 0.0
17/04:00am 8.5 6.1 7.1 91 0.7 N 9 11 5 6 1003.8 1003.6 0.0
17/03:30am 9.4 7.6 8.0 91 0.7 NNE 7 11 4 6 1004.0 1003.8 0.0
17/03:00am 10.1 8.0 8.2 88 0.9 NNW 9 11 5 6 1004.2 1004.0 0.0
17/02:30am 10.9 8.5 8.8 87 1.0 NNW 11 15 6 8 1004.9 1004.6 0.0
17/02:00am 10.3 10.0 8.6 89 0.8 CALM 0 0 0 0 1005.5 1005.3 0.0
17/01:30am 10.6 8.9 8.5 87 1.0 NNW 7 11 4 6 1005.8 1005.6 0.0
17/01:00am 10.9 9.1 8.0 82 1.4 NNW 7 13 4 7 1006.1 1005.9 0.0
17/12:30am 11.9 11.4 8.0 77 1.9 CALM 0 0 0 0 1006.5 1006.3 0.0
17/12:00am 15.4 13.1 8.9 65 3.3 WSW 11 17 6 9 1006.8 1006.6 0.0
 
Date/Time
EDT
Temp
°C
App
Temp
°C
Dew
Point
°C
Rel
Hum
%
Delta-T
°C
Wind Press
QNH
hPa
Press
MSL
hPa
Rain since
9am
mm
Dir  Spd
km/h
Gust
km/h
Spd
kts
Gust
kts
16/11:30pm 15.3 13.4 9.0 66 3.2 W 9 13 5 7 1007.1 1006.9 0.0
16/11:00pm 16.4 13.7 9.1 62 3.8 NNW 13 19 7 10 1007.0 1006.8 0.0
16/10:30pm 16.7 14.9 9.6 63 3.7 WNW 9 13 5 7 1006.9 1006.7 0.0
16/10:00pm 18.0 15.4 9.4 57 4.5 SW 13 20 7 11 1007.1 1006.9 0.0
16/09:30pm 18.5 17.2 9.8 57 4.6 SSE 7 13 4 7 1007.0 1006.8 0.0
16/09:00pm 19.2 17.1 9.7 54 5.1 SSE 11 17 6 9 1006.7 1006.5 0.0
16/08:30pm 20.2 18.5 10.0 52 5.5 SSE 9 13 5 7 1006.2 1006.0 0.0
16/08:00pm 22.2 20.7 9.0 43 7.1 S 7 11 4 6 1006.2 1006.0 0.0
16/07:30pm 23.8 20.5 8.2 37 8.3 W 15 20 8 11 1006.0 1005.8 0.0
16/07:00pm 25.1 23.2 9.0 36 8.8 W 9 17 5 9 1005.9 1005.7 0.0
16/06:30pm 25.2 21.9 9.5 37 8.6 W 17 28 9 15 1005.9 1005.7 0.0
16/06:00pm 25.2 21.9 9.5 37 8.6 WNW 17 24 9 13 1006.0 1005.8 0.0
16/05:30pm 25.7 22.4 9.5 36 8.9 SSW 17 24 9 13 1006.3 1006.1 0.0
16/05:00pm 25.7 22.4 9.5 36 8.9 SW 17 26 9 14 1006.7 1006.5 0.0
16/04:30pm 25.2 21.2 9.1 36 8.8 WSW 20 35 11 19 1007.1 1006.9 0.0
16/04:00pm 25.6 22.1 10.2 38 8.6 WSW 19 26 10 14 1007.2 1007.0 0.0
16/03:30pm 25.0 20.9 8.5 35 8.9 W 20 33 11 18 1007.7 1007.5 0.0
16/03:00pm 24.8 21.4 9.1 37 8.6 WSW 17 26 9 14 1008.2 1008.0 0.0
16/02:30pm 24.0 19.8 8.4 37 8.3 W 20 37 11 20 1008.2 1008.0 0.0
16/02:00pm 24.1 19.7 8.9 38 8.2 WSW 22 37 12 20 1008.7 1008.5 0.0
16/01:30pm 23.1 19.4 9.5 42 7.4 WSW 19 33 10 18 1009.3 1009.1 0.0
16/01:00pm 22.5 19.6 9.6 44 7.0 W 15 24 8 13 1009.5 1009.3 0.0
16/12:30pm 21.7 18.6 8.9 44 6.8 WSW 15 24 8 13 1010.0 1009.8 0.0
16/12:00pm 20.2 17.5 8.8 48 6.0 WNW 13 28 7 15 1010.4 1010.2 0.0
16/11:30am 19.1 15.5 9.9 55 4.9 NW 19 28 10 15 1010.8 1010.6 0.0
16/11:00am 18.5 13.2 8.5 52 5.2 WNW 26 43 14 23 1011.1 1010.9 0.0
16/10:30am 18.1 14.1 8.9 55 4.8 NW 20 32 11 17 1011.3 1011.1 0.0
16/10:00am 17.9 15.0 9.5 58 4.4 NW 15 30 8 16 1011.5 1011.3 0.0
16/09:30am 16.4 12.2 8.4 59 4.1 NW 20 32 11 17 1011.6 1011.4 0.0
16/09:00am 16.5 13.3 8.5 59 4.1 NW 15 24 8 13 1011.4 1011.2 0.0
16/08:30am 16.1 12.1 8.3 60 4.0 WNW 19 32 10 17 1011.4 1011.2 0.0
16/08:00am 15.5 12.3 8.3 62 3.7 WNW 15 22 8 12 1011.3 1011.1 0.0
16/07:30am 14.5 11.4 8.7 68 2.9 NNW 15 22 8 12 1011.4 1011.2 0.0
16/07:00am 14.2 11.0 8.6 69 2.8 NW 15 22 8 12 1011.3 1011.1 0.0
16/06:30am 13.3 10.0 8.2 71 2.5 NW 15 20 8 11 1011.1 1010.9 0.0
16/06:00am 13.3 10.4 8.2 71 2.5 NW 13 19 7 10 1011.2 1011.0 0.0
16/05:30am 13.3 10.0 8.2 71 2.5 NW 15 22 8 12 1010.9 1010.7 0.0
16/05:00am 13.3 10.4 8.0 70 2.6 NW 13 22 7 12 1010.8 1010.6 0.0
16/04:30am 13.0 10.8 7.9 71 2.5 NNW 9 15 5 8 1010.9 1010.7 0.0
16/04:00am 13.0 10.4 7.9 71 2.5 NNW 11 15 6 8 1010.8 1010.6 0.0
16/03:30am 13.3 9.5 7.7 69 2.8 NNW 17 26 9 14 1010.8 1010.6 0.0
16/03:00am 13.7 9.6 7.7 67 3.0 NW 19 28 10 15 1011.1 1010.9 0.0
16/02:30am 13.5 10.9 7.9 69 2.8 NNW 11 22 6 12 1011.1 1010.9 0.0
16/02:00am 13.5 9.7 7.7 68 2.9 NW 17 22 9 12 1011.4 1011.2 0.0
16/01:30am 13.4 10.5 8.0 70 2.7 NW 13 20 7 11 1011.9 1011.7 0.0
16/01:00am 13.7 10.4 7.9 68 2.9 NW 15 24 8 13 1012.2 1012.0 0.0
16/12:30am 13.6 11.0 7.8 68 2.9 NNW 11 22 6 12 1012.4 1012.2 0.0
16/12:00am 13.9 9.7 8.3 69 2.8 NW 20 28 11 15 1012.9 1012.7 0.0
 
Date/Time
EDT
Temp
°C
App
Temp
°C
Dew
Point
°C
Rel
Hum
%
Delta-T
°C
Wind Press
QNH
hPa
Press
MSL
hPa
Rain since
9am
mm
Dir  Spd
km/h
Gust
km/h
Spd
kts
Gust
kts
15/11:30pm 14.1 10.4 8.1 67 3.0 WNW 17 26 9 14 1012.8 1012.6 0.0
15/11:00pm 14.1 11.1 7.9 66 3.1 NW 13 20 7 11 1013.0 1012.8 0.0
15/10:30pm 14.3 10.7 8.3 67 3.0 NW 17 24 9 13 1013.3 1013.1 0.0
15/10:00pm 14.2 10.9 8.2 67 3.0 NW 15 20 8 11 1013.3 1013.1 0.0
15/09:30pm 14.4 11.1 8.1 66 3.2 NW 15 20 8 11 1013.4 1013.2 0.0
15/09:00pm 14.6 11.4 8.3 66 3.2 NW 15 22 8 12 1013.4 1013.2 0.0
15/08:30pm 14.8 11.6 8.5 66 3.2 NW 15 24 8 13 1013.4 1013.2 0.0
15/08:00pm 15.3 11.8 8.8 65 3.3 NW 17 24 9 13 1013.3 1013.1 0.0
15/07:30pm 15.7 12.2 8.7 63 3.6 NW 17 24 9 13 1013.2 1013.0 0.0
15/07:00pm 16.3 13.0 8.0 58 4.2 WNW 15 24 8 13 1013.1 1012.9 0.0
15/06:30pm 16.7 12.7 8.4 58 4.3 NW 19 30 10 16 1013.0 1012.8 0.0
15/06:00pm 16.7 13.0 8.1 57 4.4 NW 17 33 9 18 1013.1 1012.9 0.0
15/05:30pm 16.8 12.7 8.0 56 4.5 NW 19 37 10 20 1013.2 1013.0 0.0
15/05:00pm 17.5 12.6 8.4 55 4.7 NW 24 35 13 19 1013.3 1013.1 0.0
15/04:30pm 17.4 11.1 7.2 51 5.1 WNW 30 44 16 24 1013.2 1013.0 0.0
15/04:00pm 18.1 13.7 7.5 50 5.4 WNW 20 35 11 19 1013.2 1013.0 0.0
15/03:30pm 17.8 12.2 7.2 50 5.3 NW 26 39 14 21 1013.3 1013.1 0.0
15/03:00pm 16.8 11.6 7.4 54 4.7 NW 24 44 13 24 1013.4 1013.2 0.0
15/02:30pm 16.6 11.2 7.8 56 4.5 NW 26 39 14 21 1013.5 1013.3 0.0
15/02:00pm 16.5 11.9 8.0 57 4.3 NW 22 35 12 19 1013.5 1013.3 0.0
15/01:30pm 16.8 12.5 7.7 55 4.6 NW 20 32 11 17 1013.6 1013.4 0.0
15/01:00pm 18.3 13.1 8.8 54 5.0 WNW 26 37 14 20 1013.6 1013.4 0.0
15/12:30pm 17.2 12.2 8.1 55 4.6 WNW 24 44 13 24 1013.6 1013.4 0.0
15/12:00pm 16.8 10.9 7.4 54 4.7 WNW 28 41 15 22 1013.5 1013.3 0.0
15/11:30am 15.5 10.6 7.0 57 4.2 WNW 22 35 12 19 1013.6 1013.4 0.0
15/11:00am 14.9 10.4 6.2 56 4.2 WNW 19 30 10 16 1013.5 1013.3 0.0
15/10:30am 14.3 10.9 5.9 57 4.0 NW 13 24 7 13 1013.5 1013.3 0.0
15/10:00am 13.8 9.1 5.9 59 3.8 WNW 20 39 11 21 1013.1 1012.9 0.0
15/09:30am 14.6 8.4 6.2 57 4.1 W 28 39 15 21 1012.7 1012.5 0.0
15/09:00am 14.9 10.1 5.4 53 4.5 WNW 20 32 11 17 1012.6 1012.4 0.0
15/08:30am 14.5 10.1 5.0 53 4.5 NW 17 28 9 15 1012.5 1012.3 0.0
15/08:00am 13.6 9.9 4.7 55 4.1 WNW 13 24 7 13 1012.5 1012.3 0.0
15/07:30am 12.4 9.2 4.9 60 3.5 NNW 11 20 6 11 1012.3 1012.1 0.0
15/07:00am 12.2 7.4 4.4 59 3.6 WNW 19 30 10 16 1012.1 1011.9 0.0
15/06:30am 12.1 6.3 4.3 59 3.5 W 24 43 13 23 1011.6 1011.4 0.0
15/06:00am 12.3 6.5 4.3 58 3.6 W 24 48 13 26 1010.9 1010.7 0.0
15/05:30am 12.2 7.3 4.2 58 3.6 W 19 32 10 17 1010.6 1010.4 0.0
15/05:11am 12.4 5.8 4.1 57 3.8 WNW 28 57 15 31 1010.3 1010.1 0.0
15/05:00am 12.0 6.0 3.5 56 3.8 W 24 43 13 23 1010.1 1009.9 0.0
15/04:31am 12.0 4.9 3.8 57 3.7 WNW 30 50 16 27 1010.0 1009.8 0.0
15/04:30am 12.0 4.9 3.8 57 3.7 WNW 30 50 16 27 1009.9 1009.7 0.0
15/04:01am 12.0 4.9 3.8 57 3.7 WNW 30 48 16 26 1009.8 1009.6 0.0
15/04:00am 12.0 4.9 3.8 57 3.7 WNW 30 46 16 25 1009.5 1009.3 0.0
15/03:43am 12.0 5.3 3.5 56 3.8 WNW 28 54 15 29 1009.6 1009.4 0.0
15/03:30am 11.8 6.8 3.8 58 3.6 W 19 33 10 18 1009.5 1009.3 0.0
15/03:00am 12.0 8.0 3.0 54 4.0 NW 13 20 7 11 1009.4 1009.2 0.0
15/02:30am 11.9 7.5 2.6 53 4.1 WNW 15 33 8 18 1009.4 1009.2 0.0
15/02:19am 12.1 5.6 2.8 53 4.1 WNW 26 59 14 32 1009.4 1009.2 0.0
15/02:00am 12.1 6.0 2.8 53 4.1 W 24 57 13 31 1009.7 1009.5 0.0
15/01:32am 12.2 5.0 3.2 54 4.0 WNW 30 50 16 27 1009.6 1009.4 0.0
15/01:30am 12.2 4.7 3.2 54 4.0 WNW 32 46 17 25 1009.6 1009.4 0.0
15/01:00am 12.2 4.5 3.2 54 4.0 WNW 33 54 18 29 1009.4 1009.2 0.0
15/12:35am 12.3 5.6 3.5 55 3.9 WNW 28 50 15 27 1009.3 1009.1 0.0
15/12:30am 12.3 5.6 3.5 55 3.9 WNW 28 44 15 24 1009.2 1009.0 0.0
15/12:14am 12.3 6.6 3.0 53 4.1 WNW 22 54 12 29 1009.1 1008.9 0.0
15/12:00am 12.2 6.8 2.6 52 4.2 W 20 39 11 21 1009.0 1008.8 0.0
 
Date/Time
EDT
Temp
°C
App
Temp
°C
Dew
Point
°C
Rel
Hum
%
Delta-T
°C
Wind Press
QNH
hPa
Press
MSL
hPa
Rain since
9am
mm
Dir  Spd
km/h
Gust
km/h
Spd
kts
Gust
kts
14/11:34pm 12.5 5.2 2.7 51 4.3 W 30 57 16 31 1008.7 1008.5 0.0
14/11:30pm 12.4 5.1 2.6 51 4.3 WNW 30 54 16 29 1008.5 1008.3 0.0
14/11:24pm 12.5 4.3 2.7 51 4.3 W 35 57 19 31 1008.5 1008.3 0.0
14/11:23pm 12.4 4.2 2.8 52 4.2 W 35 57 19 31 1008.7 1008.5 0.0
14/11:21pm 12.5 4.9 2.7 51 4.3 W 32 57 17 31 1008.6 1008.4 0.0
14/11:01pm 12.6 5.8 3.3 53 4.1 W 28 50 15 27 1008.3 1008.1 0.0
14/11:00pm 12.5 6.1 3.2 53 4.1 W 26 50 14 27 1008.3 1008.1 0.0
14/10:30pm 12.6 7.4 3.6 54 4.0 WNW 20 35 11 19 1007.9 1007.7 0.0
14/10:17pm 12.7 6.7 3.4 53 4.2 W 24 46 13 25 1007.6 1007.4 0.0
14/10:13pm 12.7 6.3 3.4 53 4.2 W 26 50 14 27 1007.9 1007.7 0.0
14/10:00pm 12.7 7.6 3.9 55 4.0 W 20 46 11 25 1007.5 1007.3 0.0
14/09:52pm 12.8 7.2 3.7 54 4.1 W 22 46 12 25 1007.4 1007.2 0.0
14/09:30pm 12.9 8.3 3.6 53 4.2 WNW 17 30 9 16 1007.0 1006.8 0.0
14/09:00pm 12.9 9.0 3.6 53 4.2 NW 13 24 7 13 1006.3 1006.1 0.0
14/08:30pm 13.2 7.4 2.4 48 4.7 NW 22 39 12 21 1006.2 1006.0 0.0
14/08:00pm 13.5 6.1 3.8 52 4.4 W 32 70 17 38 1005.6 1005.4 0.0
14/07:55pm 13.6 6.2 3.9 52 4.4 WNW 32 70 17 38 1005.6 1005.4 0.0
14/07:43pm 13.7 7.9 4.6 54 4.2 WNW 24 46 13 25 1005.4 1005.2 0.0
14/07:30pm 14.1 9.1 4.4 52 4.5 WNW 20 39 11 21 1005.1 1004.9 0.0
14/07:06pm 14.3 8.0 3.7 49 4.8 WNW 26 46 14 25 1004.2 1004.0 0.0
14/07:00pm 14.5 8.5 3.6 48 5.0 W 24 46 13 25 1004.1 1003.9 0.0
14/06:30pm 14.2 7.7 4.8 53 4.4 W 28 46 15 25 1003.5 1003.3 0.0
14/06:20pm 14.4 7.9 4.7 52 4.5 WNW 28 54 15 29 1003.1 1002.9 0.0
14/06:00pm 14.7 9.0 5.0 52 4.6 W 24 48 13 26 1002.6 1002.4 0.0
14/05:30pm 14.8 6.7 5.1 52 4.6 W 37 61 20 33 1002.2 1002.0 0.0
14/05:13pm 14.7 7.8 4.7 51 4.7 W 30 67 16 36 1001.9 1001.7 0.0
14/05:00pm 14.9 9.2 5.1 52 4.7 W 24 43 13 23 1001.6 1001.4 0.0
14/04:43pm 15.0 7.6 5.0 51 4.7 W 33 61 18 33 1001.1 1000.9 0.0
14/04:40pm 14.9 6.7 4.9 51 4.7 W 37 70 20 38 1001.1 1000.9 0.0
14/04:34pm 14.9 7.5 4.9 51 4.7 W 33 70 18 38 1000.9 1000.7 0.0
14/04:30pm 14.9 8.1 5.1 52 4.6 WSW 30 56 16 30 1001.0 1000.8 0.0
14/04:00pm 15.0 8.1 6.6 57 4.1 W 32 59 17 32 1000.0 999.8 0.0
14/03:53pm 15.3 8.8 6.6 56 4.3 WSW 30 56 16 30 999.6 999.4 0.0
14/03:30pm 15.8 9.5 7.3 57 4.2 W 30 48 16 26 998.9 998.7 0.0
14/03:17pm 16.0 10.1 7.5 57 4.3 WSW 28 74 15 40 998.6 998.4 0.0
14/03:16pm 16.1 10.6 7.6 57 4.3 WSW 26 74 14 40 998.5 998.3 0.0
14/03:00pm 16.5 11.5 8.0 57 4.3 W 24 54 13 29 997.9 997.7 0.0
14/02:48pm 16.3 10.7 8.8 61 3.9 W 28 46 15 25 997.5 997.3 0.0
14/02:30pm 16.7 11.5 8.7 59 4.1 SW 26 39 14 21 996.9 996.7 0.0
14/02:00pm 16.9 12.2 9.3 61 4.0 W 24 56 13 30 996.3 996.1 0.0
14/01:30pm 16.9 12.0 10.1 64 3.6 W 26 41 14 22 995.5 995.3 0.0
14/01:00pm 17.0 12.9 10.1 64 3.7 WNW 22 37 12 20 994.8 994.5 0.0
14/12:30pm 17.5 10.9 8.6 56 4.6 WNW 33 56 18 30 994.3 994.0 0.0
14/12:03pm 17.8 12.2 8.9 56 4.6 WNW 28 57 15 31 994.1 993.8 0.0
14/12:00pm 18.4 14.6 9.7 57 4.7 WNW 20 43 11 23 994.0 993.7 0.0
14/11:31am 16.8 11.6 9.0 60 4.0 WNW 26 54 14 29 993.6 993.3 0.0
14/11:30am 16.7 11.9 8.9 60 4.0 WNW 24 54 13 29 993.5 993.2 0.0
14/11:10am 16.5 9.2 8.7 60 4.0 WNW 37 80 20 43 993.4 993.1 0.0
14/11:00am 16.9 10.6 8.8 59 4.2 WNW 32 54 17 29 993.0 992.8 0.0
14/10:30am 16.0 9.0 8.5 61 3.8 WNW 35 65 19 35 993.1 992.9 0.0
14/10:01am 15.8 10.0 9.5 66 3.3 WNW 30 48 16 26 992.2 992.0 0.0
14/10:00am 15.9 9.8 9.6 66 3.3 WNW 32 48 17 26 992.2 992.0 0.0
14/09:30am 16.5 10.8 9.7 64 3.6 WNW 30 67 16 36 991.8 991.6 0.0
14/09:00am 15.8 9.4 9.5 66 3.3 WNW 33 52 18 28 991.3 991.1 6.4
14/08:37am 15.3 8.5 9.4 68 3.1 NW 35 78 19 42 990.9 990.7 6.4

Other Formats:

Comma delimited format used in spreadsheet applications
http://www.bom.gov.au/fwo/IDT60801/IDT60801.94957.axf

JavaScript Object Notation format (JSON) in row-major order
http://www.bom.gov.au/fwo/IDT60801/IDT60801.94957.json